sensor_id;sensor_type;location;lat;lon;timestamp;P1;durP1;ratioP1;P2;durP2;ratioP2
42972;SDS011;28610;51.214;6.962;2023-08-20T00:00:17;1.55;;;1.50;;
42972;SDS011;28610;51.214;6.962;2023-08-20T00:03:03;1.88;;;1.77;;
42972;SDS011;28610;51.214;6.962;2023-08-20T00:05:50;1.77;;;1.67;;
42972;SDS011;28610;51.214;6.962;2023-08-20T00:08:35;1.63;;;1.63;;
42972;SDS011;28610;51.214;6.962;2023-08-20T00:11:21;1.95;;;1.85;;
42972;SDS011;28610;51.214;6.962;2023-08-20T00:14:08;2.17;;;1.55;;
42972;SDS011;28610;51.214;6.962;2023-08-20T00:16:54;1.40;;;1.40;;
42972;SDS011;28610;51.214;6.962;2023-08-20T00:19:40;1.67;;;1.58;;
42972;SDS011;28610;51.214;6.962;2023-08-20T00:22:26;2.58;;;2.38;;
42972;SDS011;28610;51.214;6.962;2023-08-20T00:25:14;2.70;;;2.50;;
42972;SDS011;28610;51.214;6.962;2023-08-20T00:28:00;1.92;;;1.83;;
42972;SDS011;28610;51.214;6.962;2023-08-20T00:30:47;2.08;;;1.98;;
42972;SDS011;28610;51.214;6.962;2023-08-20T00:33:33;1.90;;;1.80;;
42972;SDS011;28610;51.214;6.962;2023-08-20T00:36:19;2.03;;;1.90;;
42972;SDS011;28610;51.214;6.962;2023-08-20T00:39:05;2.70;;;2.50;;
42972;SDS011;28610;51.214;6.962;2023-08-20T00:41:51;2.80;;;2.50;;
42972;SDS011;28610;51.214;6.962;2023-08-20T00:44:36;3.15;;;2.95;;
42972;SDS011;28610;51.214;6.962;2023-08-20T00:47:24;4.80;;;3.03;;
42972;SDS011;28610;51.214;6.962;2023-08-20T00:50:09;2.95;;;2.65;;
42972;SDS011;28610;51.214;6.962;2023-08-20T00:52:57;3.80;;;3.25;;
42972;SDS011;28610;51.214;6.962;2023-08-20T00:55:42;2.13;;;2.03;;
42972;SDS011;28610;51.214;6.962;2023-08-20T00:58:28;4.10;;;2.25;;
42972;SDS011;28610;51.214;6.962;2023-08-20T01:01:15;3.78;;;2.30;;
42972;SDS011;28610;51.214;6.962;2023-08-20T01:04:03;2.00;;;1.90;;
42972;SDS011;28610;51.214;6.962;2023-08-20T01:06:51;10.18;;;2.58;;
42972;SDS011;28610;51.214;6.962;2023-08-20T01:09:41;2.20;;;2.03;;
42972;SDS011;28610;51.214;6.962;2023-08-20T01:12:29;2.97;;;2.13;;
42972;SDS011;28610;51.214;6.962;2023-08-20T01:15:15;1.63;;;1.63;;
42972;SDS011;28610;51.214;6.962;2023-08-20T01:18:00;1.58;;;1.48;;
42972;SDS011;28610;51.214;6.962;2023-08-20T01:20:51;2.15;;;2.05;;
42972;SDS011;28610;51.214;6.962;2023-08-20T01:23:45;1.88;;;1.77;;
42972;SDS011;28610;51.214;6.962;2023-08-20T01:26:43;2.35;;;2.13;;
42972;SDS011;28610;51.214;6.962;2023-08-20T01:29:36;1.58;;;1.58;;
42972;SDS011;28610;51.214;6.962;2023-08-20T01:32:22;2.05;;;1.95;;
42972;SDS011;28610;51.214;6.962;2023-08-20T01:35:09;1.40;;;1.40;;
42972;SDS011;28610;51.214;6.962;2023-08-20T01:37:57;1.80;;;1.75;;
42972;SDS011;28610;51.214;6.962;2023-08-20T01:40:43;6.07;;;2.25;;
42972;SDS011;28610;51.214;6.962;2023-08-20T01:43:29;2.38;;;2.17;;
42972;SDS011;28610;51.214;6.962;2023-08-20T01:46:16;2.65;;;2.20;;
42972;SDS011;28610;51.214;6.962;2023-08-20T01:49:02;1.83;;;1.73;;
42972;SDS011;28610;51.214;6.962;2023-08-20T01:51:48;2.03;;;1.92;;
42972;SDS011;28610;51.214;6.962;2023-08-20T01:54:34;2.00;;;1.90;;
42972;SDS011;28610;51.214;6.962;2023-08-20T01:57:19;1.55;;;1.52;;
42972;SDS011;28610;51.214;6.962;2023-08-20T02:00:05;1.77;;;1.67;;
42972;SDS011;28610;51.214;6.962;2023-08-20T02:02:53;2.08;;;1.98;;
42972;SDS011;28610;51.214;6.962;2023-08-20T02:05:38;2.92;;;1.88;;
42972;SDS011;28610;51.214;6.962;2023-08-20T02:08:24;1.80;;;1.70;;
42972;SDS011;28610;51.214;6.962;2023-08-20T02:11:10;1.63;;;1.60;;
42972;SDS011;28610;51.214;6.962;2023-08-20T02:13:56;2.38;;;2.17;;
42972;SDS011;28610;51.214;6.962;2023-08-20T02:16:41;1.98;;;1.80;;
42972;SDS011;28610;51.214;6.962;2023-08-20T02:19:29;1.88;;;1.77;;
42972;SDS011;28610;51.214;6.962;2023-08-20T02:25:20;1.75;;;1.65;;
42972;SDS011;28610;51.214;6.962;2023-08-20T02:28:05;8.05;;;2.42;;
42972;SDS011;28610;51.214;6.962;2023-08-20T02:30:51;2.10;;;2.00;;
42972;SDS011;28610;51.214;6.962;2023-08-20T02:33:36;3.00;;;2.70;;
42972;SDS011;28610;51.214;6.962;2023-08-20T02:36:23;2.55;;;2.35;;
42972;SDS011;28610;51.214;6.962;2023-08-20T02:39:09;2.75;;;2.55;;
42972;SDS011;28610;51.214;6.962;2023-08-20T02:41:54;2.17;;;2.08;;
42972;SDS011;28610;51.214;6.962;2023-08-20T02:44:40;3.25;;;2.60;;
42972;SDS011;28610;51.214;6.962;2023-08-20T02:47:26;2.63;;;2.45;;
42972;SDS011;28610;51.214;6.962;2023-08-20T02:50:12;2.17;;;2.00;;
42972;SDS011;28610;51.214;6.962;2023-08-20T02:52:59;2.05;;;1.95;;
42972;SDS011;28610;51.214;6.962;2023-08-20T02:55:44;2.00;;;1.90;;
42972;SDS011;28610;51.214;6.962;2023-08-20T02:58:30;2.83;;;2.63;;
42972;SDS011;28610;51.214;6.962;2023-08-20T03:01:19;2.83;;;2.63;;
42972;SDS011;28610;51.214;6.962;2023-08-20T03:04:05;2.88;;;2.67;;
42972;SDS011;28610;51.214;6.962;2023-08-20T03:06:51;2.00;;;1.77;;
42972;SDS011;28610;51.214;6.962;2023-08-20T03:09:38;2.15;;;2.05;;
42972;SDS011;28610;51.214;6.962;2023-08-20T03:12:23;2.83;;;2.63;;
42972;SDS011;28610;51.214;6.962;2023-08-20T03:15:09;1.80;;;1.75;;
42972;SDS011;28610;51.214;6.962;2023-08-20T03:17:55;2.70;;;2.58;;
42972;SDS011;28610;51.214;6.962;2023-08-20T03:20:40;4.03;;;3.20;;
42972;SDS011;28610;51.214;6.962;2023-08-20T03:23:26;2.78;;;2.13;;
42972;SDS011;28610;51.214;6.962;2023-08-20T03:26:14;4.38;;;2.33;;
42972;SDS011;28610;51.214;6.962;2023-08-20T03:28:59;2.78;;;2.58;;
42972;SDS011;28610;51.214;6.962;2023-08-20T03:31:46;2.08;;;1.98;;
42972;SDS011;28610;51.214;6.962;2023-08-20T03:34:32;2.20;;;2.10;;
42972;SDS011;28610;51.214;6.962;2023-08-20T03:37:18;2.53;;;2.30;;
42972;SDS011;28610;51.214;6.962;2023-08-20T03:40:04;2.17;;;2.08;;
42972;SDS011;28610;51.214;6.962;2023-08-20T03:42:51;3.38;;;2.55;;
42972;SDS011;28610;51.214;6.962;2023-08-20T03:45:37;1.67;;;1.65;;
42972;SDS011;28610;51.214;6.962;2023-08-20T03:48:22;2.30;;;2.10;;
42972;SDS011;28610;51.214;6.962;2023-08-20T03:51:08;3.28;;;2.95;;
42972;SDS011;28610;51.214;6.962;2023-08-20T03:53:54;2.85;;;2.65;;
42972;SDS011;28610;51.214;6.962;2023-08-20T03:56:39;3.05;;;2.85;;
42972;SDS011;28610;51.214;6.962;2023-08-20T03:59:27;2.47;;;2.28;;
42972;SDS011;28610;51.214;6.962;2023-08-20T04:02:13;3.88;;;2.67;;
42972;SDS011;28610;51.214;6.962;2023-08-20T04:04:59;2.30;;;2.20;;
42972;SDS011;28610;51.214;6.962;2023-08-20T04:07:44;1.83;;;1.73;;
42972;SDS011;28610;51.214;6.962;2023-08-20T04:10:30;18.95;;;2.80;;
42972;SDS011;28610;51.214;6.962;2023-08-20T04:13:16;3.88;;;3.22;;
42972;SDS011;28610;51.214;6.962;2023-08-20T04:16:03;1.63;;;1.63;;
42972;SDS011;28610;51.214;6.962;2023-08-20T04:18:49;2.45;;;2.35;;
42972;SDS011;28610;51.214;6.962;2023-08-20T04:21:35;4.32;;;2.72;;
42972;SDS011;28610;51.214;6.962;2023-08-20T04:24:20;2.75;;;2.55;;
42972;SDS011;28610;51.214;6.962;2023-08-20T04:27:06;2.60;;;2.40;;
42972;SDS011;28610;51.214;6.962;2023-08-20T04:29:51;2.95;;;2.75;;
42972;SDS011;28610;51.214;6.962;2023-08-20T04:32:38;2.78;;;2.58;;
42972;SDS011;28610;51.214;6.962;2023-08-20T04:35:24;2.38;;;2.25;;
42972;SDS011;28610;51.214;6.962;2023-08-20T04:38:10;1.98;;;1.92;;
42972;SDS011;28610;51.214;6.962;2023-08-20T04:40:55;4.68;;;2.42;;
42972;SDS011;28610;51.214;6.962;2023-08-20T04:43:41;1.90;;;1.80;;
42972;SDS011;28610;51.214;6.962;2023-08-20T04:46:26;2.35;;;2.20;;
42972;SDS011;28610;51.214;6.962;2023-08-20T04:49:14;2.25;;;2.13;;
42972;SDS011;28610;51.214;6.962;2023-08-20T04:51:59;1.92;;;1.83;;
42972;SDS011;28610;51.214;6.962;2023-08-20T04:54:45;1.52;;;1.48;;
42972;SDS011;28610;51.214;6.962;2023-08-20T04:57:30;2.63;;;2.42;;
42972;SDS011;28610;51.214;6.962;2023-08-20T05:00:16;2.38;;;2.25;;
42972;SDS011;28610;51.214;6.962;2023-08-20T05:03:02;1.95;;;1.85;;
42972;SDS011;28610;51.214;6.962;2023-08-20T05:05:49;3.45;;;2.58;;
42972;SDS011;28610;51.214;6.962;2023-08-20T05:08:35;1.85;;;1.83;;
42972;SDS011;28610;51.214;6.962;2023-08-20T05:11:22;2.42;;;2.33;;
42972;SDS011;28610;51.214;6.962;2023-08-20T05:14:08;2.17;;;2.08;;
42972;SDS011;28610;51.214;6.962;2023-08-20T05:16:53;2.95;;;2.75;;
42972;SDS011;28610;51.214;6.962;2023-08-20T05:19:39;2.35;;;2.22;;
42972;SDS011;28610;51.214;6.962;2023-08-20T05:22:26;2.28;;;2.17;;
42972;SDS011;28610;51.214;6.962;2023-08-20T05:25:11;2.97;;;2.55;;
42972;SDS011;28610;51.214;6.962;2023-08-20T05:27:57;2.85;;;2.65;;
42972;SDS011;28610;51.214;6.962;2023-08-20T05:30:44;3.25;;;2.95;;
42972;SDS011;28610;51.214;6.962;2023-08-20T05:33:37;2.45;;;2.28;;
42972;SDS011;28610;51.214;6.962;2023-08-20T05:36:23;2.78;;;2.58;;
42972;SDS011;28610;51.214;6.962;2023-08-20T05:39:10;2.58;;;2.47;;
42972;SDS011;28610;51.214;6.962;2023-08-20T05:41:56;3.60;;;3.17;;
42972;SDS011;28610;51.214;6.962;2023-08-20T05:44:41;3.47;;;3.15;;
42972;SDS011;28610;51.214;6.962;2023-08-20T05:47:27;3.22;;;3.03;;
42972;SDS011;28610;51.214;6.962;2023-08-20T05:50:13;1.95;;;1.85;;
42972;SDS011;28610;51.214;6.962;2023-08-20T05:52:59;2.45;;;2.25;;
42972;SDS011;28610;51.214;6.962;2023-08-20T05:55:46;2.70;;;2.50;;
42972;SDS011;28610;51.214;6.962;2023-08-20T05:58:32;2.58;;;2.40;;
42972;SDS011;28610;51.214;6.962;2023-08-20T06:01:17;3.38;;;2.47;;
42972;SDS011;28610;51.214;6.962;2023-08-20T06:04:03;3.00;;;2.75;;
42972;SDS011;28610;51.214;6.962;2023-08-20T06:06:49;1.92;;;1.83;;
42972;SDS011;28610;51.214;6.962;2023-08-20T06:09:35;1.90;;;1.80;;
42972;SDS011;28610;51.214;6.962;2023-08-20T06:12:21;2.00;;;1.90;;
42972;SDS011;28610;51.214;6.962;2023-08-20T06:15:07;1.75;;;1.65;;
42972;SDS011;28610;51.214;6.962;2023-08-20T06:17:53;1.70;;;1.60;;
42972;SDS011;28610;51.214;6.962;2023-08-20T06:20:39;1.95;;;1.83;;
42972;SDS011;28610;51.214;6.962;2023-08-20T06:23:24;1.83;;;1.73;;
42972;SDS011;28610;51.214;6.962;2023-08-20T06:26:10;2.13;;;2.03;;
42972;SDS011;28610;51.214;6.962;2023-08-20T06:28:57;2.28;;;2.17;;
42972;SDS011;28610;51.214;6.962;2023-08-20T06:31:42;4.70;;;2.28;;
42972;SDS011;28610;51.214;6.962;2023-08-20T06:34:28;2.10;;;2.00;;
42972;SDS011;28610;51.214;6.962;2023-08-20T06:37:14;1.40;;;1.40;;
42972;SDS011;28610;51.214;6.962;2023-08-20T06:39:59;1.77;;;1.70;;
42972;SDS011;28610;51.214;6.962;2023-08-20T06:42:45;2.05;;;1.95;;
42972;SDS011;28610;51.214;6.962;2023-08-20T06:45:32;1.90;;;1.80;;
42972;SDS011;28610;51.214;6.962;2023-08-20T06:48:17;1.90;;;1.80;;
42972;SDS011;28610;51.214;6.962;2023-08-20T06:51:07;1.73;;;1.63;;
42972;SDS011;28610;51.214;6.962;2023-08-20T06:53:53;1.40;;;1.40;;
42972;SDS011;28610;51.214;6.962;2023-08-20T06:56:39;0.93;;;0.93;;
42972;SDS011;28610;51.214;6.962;2023-08-20T06:59:25;2.85;;;2.53;;
42972;SDS011;28610;51.214;6.962;2023-08-20T07:02:12;1.80;;;1.70;;
42972;SDS011;28610;51.214;6.962;2023-08-20T07:04:58;1.98;;;1.83;;
42972;SDS011;28610;51.214;6.962;2023-08-20T07:07:45;1.60;;;1.50;;
42972;SDS011;28610;51.214;6.962;2023-08-20T07:10:31;3.05;;;2.75;;
42972;SDS011;28610;51.214;6.962;2023-08-20T07:13:16;2.58;;;1.40;;
42972;SDS011;28610;51.214;6.962;2023-08-20T07:16:02;1.52;;;1.52;;
42972;SDS011;28610;51.214;6.962;2023-08-20T07:18:49;2.47;;;1.95;;
42972;SDS011;28610;51.214;6.962;2023-08-20T07:21:36;1.55;;;1.50;;
42972;SDS011;28610;51.214;6.962;2023-08-20T07:24:22;1.67;;;1.58;;
42972;SDS011;28610;51.214;6.962;2023-08-20T07:27:09;2.95;;;2.30;;
42972;SDS011;28610;51.214;6.962;2023-08-20T07:29:56;1.33;;;1.23;;
42972;SDS011;28610;51.214;6.962;2023-08-20T07:32:41;1.20;;;1.20;;
42972;SDS011;28610;51.214;6.962;2023-08-20T07:35:28;2.30;;;1.48;;
42972;SDS011;28610;51.214;6.962;2023-08-20T07:38:14;1.75;;;1.65;;
42972;SDS011;28610;51.214;6.962;2023-08-20T07:41:00;1.45;;;1.35;;
42972;SDS011;28610;51.214;6.962;2023-08-20T07:43:46;4.65;;;1.60;;
42972;SDS011;28610;51.214;6.962;2023-08-20T07:46:32;1.15;;;1.05;;
42972;SDS011;28610;51.214;6.962;2023-08-20T07:49:17;2.20;;;1.10;;
42972;SDS011;28610;51.214;6.962;2023-08-20T07:52:05;1.83;;;1.50;;
42972;SDS011;28610;51.214;6.962;2023-08-20T07:54:50;1.60;;;1.50;;
42972;SDS011;28610;51.214;6.962;2023-08-20T07:57:36;1.15;;;1.15;;
42972;SDS011;28610;51.214;6.962;2023-08-20T08:00:21;1.17;;;1.08;;
42972;SDS011;28610;51.214;6.962;2023-08-20T08:03:07;2.65;;;1.30;;
42972;SDS011;28610;51.214;6.962;2023-08-20T08:05:54;1.40;;;1.30;;
42972;SDS011;28610;51.214;6.962;2023-08-20T08:08:42;1.38;;;1.27;;
42972;SDS011;28610;51.214;6.962;2023-08-20T08:11:28;1.75;;;1.42;;
42972;SDS011;28610;51.214;6.962;2023-08-20T08:14:14;1.02;;;0.98;;
42972;SDS011;28610;51.214;6.962;2023-08-20T08:17:00;1.08;;;0.98;;
42972;SDS011;28610;51.214;6.962;2023-08-20T08:19:45;1.67;;;1.58;;
42972;SDS011;28610;51.214;6.962;2023-08-20T08:22:31;1.50;;;1.40;;
42972;SDS011;28610;51.214;6.962;2023-08-20T08:25:18;1.40;;;1.30;;
42972;SDS011;28610;51.214;6.962;2023-08-20T08:28:04;0.65;;;0.65;;
42972;SDS011;28610;51.214;6.962;2023-08-20T08:30:50;1.20;;;1.17;;
42972;SDS011;28610;51.214;6.962;2023-08-20T08:33:36;1.02;;;1.02;;
42972;SDS011;28610;51.214;6.962;2023-08-20T08:36:21;1.00;;;1.00;;
42972;SDS011;28610;51.214;6.962;2023-08-20T08:39:08;1.27;;;1.17;;
42972;SDS011;28610;51.214;6.962;2023-08-20T08:41:56;0.70;;;0.70;;
42972;SDS011;28610;51.214;6.962;2023-08-20T08:44:46;2.95;;;1.05;;
42972;SDS011;28610;51.214;6.962;2023-08-20T08:47:32;0.90;;;0.90;;
42972;SDS011;28610;51.214;6.962;2023-08-20T08:50:18;1.23;;;1.13;;
42972;SDS011;28610;51.214;6.962;2023-08-20T08:53:04;1.63;;;1.52;;
42972;SDS011;28610;51.214;6.962;2023-08-20T08:55:50;0.98;;;0.98;;
42972;SDS011;28610;51.214;6.962;2023-08-20T08:58:37;0.55;;;0.55;;
42972;SDS011;28610;51.214;6.962;2023-08-20T09:01:23;0.95;;;0.93;;
42972;SDS011;28610;51.214;6.962;2023-08-20T09:04:09;1.05;;;0.95;;
42972;SDS011;28610;51.214;6.962;2023-08-20T09:06:55;2.53;;;1.95;;
42972;SDS011;28610;51.214;6.962;2023-08-20T09:09:41;0.70;;;0.70;;
42972;SDS011;28610;51.214;6.962;2023-08-20T09:12:27;0.90;;;0.90;;
42972;SDS011;28610;51.214;6.962;2023-08-20T09:15:14;0.82;;;0.82;;
42972;SDS011;28610;51.214;6.962;2023-08-20T09:18:00;1.17;;;1.05;;
42972;SDS011;28610;51.214;6.962;2023-08-20T09:20:47;0.93;;;0.93;;
42972;SDS011;28610;51.214;6.962;2023-08-20T09:23:33;1.35;;;1.25;;
42972;SDS011;28610;51.214;6.962;2023-08-20T09:26:19;1.00;;;0.98;;
42972;SDS011;28610;51.214;6.962;2023-08-20T09:29:04;1.27;;;1.17;;
42972;SDS011;28610;51.214;6.962;2023-08-20T09:31:51;0.90;;;0.90;;
42972;SDS011;28610;51.214;6.962;2023-08-20T09:34:45;0.85;;;0.85;;
42972;SDS011;28610;51.214;6.962;2023-08-20T09:37:31;1.02;;;1.02;;
42972;SDS011;28610;51.214;6.962;2023-08-20T09:40:18;0.85;;;0.73;;
42972;SDS011;28610;51.214;6.962;2023-08-20T09:43:03;1.15;;;1.15;;
42972;SDS011;28610;51.214;6.962;2023-08-20T09:45:51;1.88;;;1.48;;
42972;SDS011;28610;51.214;6.962;2023-08-20T09:48:40;0.80;;;0.80;;
42972;SDS011;28610;51.214;6.962;2023-08-20T09:51:27;0.85;;;0.85;;
42972;SDS011;28610;51.214;6.962;2023-08-20T09:54:13;0.75;;;0.75;;
42972;SDS011;28610;51.214;6.962;2023-08-20T09:57:01;0.43;;;0.43;;
42972;SDS011;28610;51.214;6.962;2023-08-20T09:59:46;1.00;;;0.88;;
42972;SDS011;28610;51.214;6.962;2023-08-20T10:02:33;0.65;;;0.65;;
42972;SDS011;28610;51.214;6.962;2023-08-20T10:05:20;0.95;;;0.95;;
42972;SDS011;28610;51.214;6.962;2023-08-20T10:08:08;0.80;;;0.80;;
42972;SDS011;28610;51.214;6.962;2023-08-20T10:10:54;0.82;;;0.82;;
42972;SDS011;28610;51.214;6.962;2023-08-20T10:13:39;0.60;;;0.60;;
42972;SDS011;28610;51.214;6.962;2023-08-20T10:16:26;0.90;;;0.90;;
42972;SDS011;28610;51.214;6.962;2023-08-20T10:19:13;1.08;;;1.02;;
42972;SDS011;28610;51.214;6.962;2023-08-20T10:22:03;0.77;;;0.77;;
42972;SDS011;28610;51.214;6.962;2023-08-20T10:24:49;0.65;;;0.65;;
42972;SDS011;28610;51.214;6.962;2023-08-20T10:27:37;1.85;;;1.20;;
42972;SDS011;28610;51.214;6.962;2023-08-20T10:30:23;0.88;;;0.88;;
42972;SDS011;28610;51.214;6.962;2023-08-20T10:33:10;0.80;;;0.80;;
42972;SDS011;28610;51.214;6.962;2023-08-20T10:35:58;0.75;;;0.75;;
42972;SDS011;28610;51.214;6.962;2023-08-20T10:38:53;1.30;;;0.93;;
42972;SDS011;28610;51.214;6.962;2023-08-20T10:41:40;1.17;;;1.17;;
42972;SDS011;28610;51.214;6.962;2023-08-20T10:44:25;0.80;;;0.80;;
42972;SDS011;28610;51.214;6.962;2023-08-20T10:47:11;1.30;;;1.25;;
42972;SDS011;28610;51.214;6.962;2023-08-20T10:50:02;1.42;;;1.30;;
42972;SDS011;28610;51.214;6.962;2023-08-20T10:52:48;0.90;;;0.90;;
42972;SDS011;28610;51.214;6.962;2023-08-20T10:55:35;1.23;;;1.17;;
42972;SDS011;28610;51.214;6.962;2023-08-20T10:58:23;1.27;;;1.17;;
42972;SDS011;28610;51.214;6.962;2023-08-20T11:01:12;1.50;;;1.27;;
42972;SDS011;28610;51.214;6.962;2023-08-20T11:03:58;1.30;;;1.30;;
42972;SDS011;28610;51.214;6.962;2023-08-20T11:06:49;1.60;;;1.50;;
42972;SDS011;28610;51.214;6.962;2023-08-20T11:09:35;1.10;;;1.10;;
42972;SDS011;28610;51.214;6.962;2023-08-20T11:12:24;1.27;;;1.20;;
42972;SDS011;28610;51.214;6.962;2023-08-20T11:15:10;0.98;;;0.98;;
42972;SDS011;28610;51.214;6.962;2023-08-20T11:17:56;1.25;;;1.25;;
42972;SDS011;28610;51.214;6.962;2023-08-20T11:20:42;1.10;;;1.10;;
42972;SDS011;28610;51.214;6.962;2023-08-20T11:23:28;0.80;;;0.80;;
42972;SDS011;28610;51.214;6.962;2023-08-20T11:26:13;1.15;;;1.08;;
42972;SDS011;28610;51.214;6.962;2023-08-20T11:29:00;1.25;;;1.15;;
42972;SDS011;28610;51.214;6.962;2023-08-20T11:31:47;1.35;;;1.35;;
42972;SDS011;28610;51.214;6.962;2023-08-20T11:34:33;1.83;;;1.73;;
42972;SDS011;28610;51.214;6.962;2023-08-20T11:37:20;1.00;;;1.00;;
42972;SDS011;28610;51.214;6.962;2023-08-20T11:40:07;0.90;;;0.90;;
42972;SDS011;28610;51.214;6.962;2023-08-20T11:42:53;1.02;;;1.02;;
42972;SDS011;28610;51.214;6.962;2023-08-20T11:45:47;1.05;;;1.05;;
42972;SDS011;28610;51.214;6.962;2023-08-20T11:48:32;1.15;;;1.05;;
42972;SDS011;28610;51.214;6.962;2023-08-20T11:51:20;0.73;;;0.73;;
42972;SDS011;28610;51.214;6.962;2023-08-20T11:54:06;0.90;;;0.90;;
42972;SDS011;28610;51.214;6.962;2023-08-20T11:56:58;1.23;;;1.17;;
42972;SDS011;28610;51.214;6.962;2023-08-20T11:59:47;1.08;;;1.08;;
42972;SDS011;28610;51.214;6.962;2023-08-20T12:02:33;0.85;;;0.85;;
42972;SDS011;28610;51.214;6.962;2023-08-20T12:05:19;0.80;;;0.80;;
42972;SDS011;28610;51.214;6.962;2023-08-20T12:08:05;1.80;;;1.10;;
42972;SDS011;28610;51.214;6.962;2023-08-20T12:10:51;1.75;;;0.98;;
42972;SDS011;28610;51.214;6.962;2023-08-20T12:13:37;0.85;;;0.85;;
42972;SDS011;28610;51.214;6.962;2023-08-20T12:16:23;1.20;;;1.13;;
42972;SDS011;28610;51.214;6.962;2023-08-20T12:19:10;0.98;;;0.98;;
42972;SDS011;28610;51.214;6.962;2023-08-20T12:21:56;0.80;;;0.80;;
42972;SDS011;28610;51.214;6.962;2023-08-20T12:24:41;0.98;;;0.98;;
42972;SDS011;28610;51.214;6.962;2023-08-20T12:27:27;2.28;;;1.42;;
42972;SDS011;28610;51.214;6.962;2023-08-20T12:30:13;1.17;;;1.17;;
42972;SDS011;28610;51.214;6.962;2023-08-20T12:32:58;1.05;;;1.05;;
42972;SDS011;28610;51.214;6.962;2023-08-20T12:35:45;1.83;;;1.38;;
42972;SDS011;28610;51.214;6.962;2023-08-20T12:38:31;1.95;;;1.27;;
42972;SDS011;28610;51.214;6.962;2023-08-20T12:41:18;0.82;;;0.82;;
42972;SDS011;28610;51.214;6.962;2023-08-20T12:44:04;0.93;;;0.93;;
42972;SDS011;28610;51.214;6.962;2023-08-20T12:46:50;1.33;;;1.13;;
42972;SDS011;28610;51.214;6.962;2023-08-20T12:49:36;1.00;;;1.00;;
42972;SDS011;28610;51.214;6.962;2023-08-20T12:52:23;1.10;;;1.10;;
42972;SDS011;28610;51.214;6.962;2023-08-20T12:55:08;0.82;;;0.82;;
42972;SDS011;28610;51.214;6.962;2023-08-20T12:57:55;0.98;;;0.98;;
42972;SDS011;28610;51.214;6.962;2023-08-20T13:00:41;1.95;;;1.33;;
42972;SDS011;28610;51.214;6.962;2023-08-20T13:03:27;1.17;;;1.17;;
42972;SDS011;28610;51.214;6.962;2023-08-20T13:06:13;1.13;;;1.02;;
42972;SDS011;28610;51.214;6.962;2023-08-20T13:09:00;2.08;;;1.30;;
42972;SDS011;28610;51.214;6.962;2023-08-20T13:11:47;0.77;;;0.77;;
42972;SDS011;28610;51.214;6.962;2023-08-20T13:14:33;1.17;;;1.15;;
42972;SDS011;28610;51.214;6.962;2023-08-20T13:17:19;1.40;;;1.30;;
42972;SDS011;28610;51.214;6.962;2023-08-20T13:20:05;1.38;;;1.25;;
42972;SDS011;28610;51.214;6.962;2023-08-20T13:22:52;3.22;;;1.27;;
42972;SDS011;28610;51.214;6.962;2023-08-20T13:25:39;1.52;;;1.42;;
42972;SDS011;28610;51.214;6.962;2023-08-20T13:28:26;1.38;;;1.27;;
42972;SDS011;28610;51.214;6.962;2023-08-20T13:31:12;1.15;;;1.15;;
42972;SDS011;28610;51.214;6.962;2023-08-20T13:33:58;0.95;;;0.95;;
42972;SDS011;28610;51.214;6.962;2023-08-20T13:36:43;1.23;;;1.13;;
42972;SDS011;28610;51.214;6.962;2023-08-20T13:39:30;1.17;;;1.17;;
42972;SDS011;28610;51.214;6.962;2023-08-20T13:42:17;2.10;;;1.48;;
42972;SDS011;28610;51.214;6.962;2023-08-20T13:45:03;1.20;;;1.20;;
42972;SDS011;28610;51.214;6.962;2023-08-20T13:47:49;0.88;;;0.88;;
42972;SDS011;28610;51.214;6.962;2023-08-20T13:50:34;1.65;;;1.30;;
42972;SDS011;28610;51.214;6.962;2023-08-20T13:53:20;1.20;;;1.20;;
42972;SDS011;28610;51.214;6.962;2023-08-20T13:56:05;1.42;;;1.33;;
42972;SDS011;28610;51.214;6.962;2023-08-20T13:58:53;1.48;;;1.38;;
42972;SDS011;28610;51.214;6.962;2023-08-20T14:01:39;1.80;;;1.60;;
42972;SDS011;28610;51.214;6.962;2023-08-20T14:04:24;2.05;;;1.40;;
42972;SDS011;28610;51.214;6.962;2023-08-20T14:07:10;1.70;;;1.60;;
42972;SDS011;28610;51.214;6.962;2023-08-20T14:09:55;4.30;;;1.60;;
42972;SDS011;28610;51.214;6.962;2023-08-20T14:12:41;1.65;;;1.55;;
42972;SDS011;28610;51.214;6.962;2023-08-20T14:15:28;1.50;;;1.40;;
42972;SDS011;28610;51.214;6.962;2023-08-20T14:18:14;1.02;;;1.02;;
42972;SDS011;28610;51.214;6.962;2023-08-20T14:20:59;1.50;;;1.40;;
42972;SDS011;28610;51.214;6.962;2023-08-20T14:23:46;0.75;;;0.75;;
42972;SDS011;28610;51.214;6.962;2023-08-20T14:26:32;1.15;;;1.15;;
42972;SDS011;28610;51.214;6.962;2023-08-20T14:29:18;1.98;;;1.85;;
42972;SDS011;28610;51.214;6.962;2023-08-20T14:32:05;0.75;;;0.75;;
42972;SDS011;28610;51.214;6.962;2023-08-20T14:34:51;1.10;;;1.10;;
42972;SDS011;28610;51.214;6.962;2023-08-20T14:37:36;2.05;;;1.40;;
42972;SDS011;28610;51.214;6.962;2023-08-20T14:40:22;0.75;;;0.75;;
42972;SDS011;28610;51.214;6.962;2023-08-20T14:43:08;1.20;;;1.20;;
42972;SDS011;28610;51.214;6.962;2023-08-20T14:45:54;0.98;;;0.98;;
42972;SDS011;28610;51.214;6.962;2023-08-20T14:48:41;0.88;;;0.88;;
42972;SDS011;28610;51.214;6.962;2023-08-20T14:51:27;1.50;;;1.00;;
42972;SDS011;28610;51.214;6.962;2023-08-20T14:54:13;1.02;;;1.00;;
42972;SDS011;28610;51.214;6.962;2023-08-20T14:56:59;1.30;;;1.25;;
42972;SDS011;28610;51.214;6.962;2023-08-20T14:59:44;1.33;;;1.23;;
42972;SDS011;28610;51.214;6.962;2023-08-20T15:02:30;1.38;;;1.35;;
42972;SDS011;28610;51.214;6.962;2023-08-20T15:05:17;0.80;;;0.80;;
42972;SDS011;28610;51.214;6.962;2023-08-20T15:08:03;1.13;;;1.13;;
42972;SDS011;28610;51.214;6.962;2023-08-20T15:10:55;1.40;;;1.30;;
42972;SDS011;28610;51.214;6.962;2023-08-20T15:13:42;3.40;;;1.85;;
42972;SDS011;28610;51.214;6.962;2023-08-20T15:16:28;1.05;;;1.05;;
42972;SDS011;28610;51.214;6.962;2023-08-20T15:19:13;1.08;;;1.08;;
42972;SDS011;28610;51.214;6.962;2023-08-20T15:22:00;0.88;;;0.88;;
42972;SDS011;28610;51.214;6.962;2023-08-20T15:24:47;1.13;;;1.08;;
42972;SDS011;28610;51.214;6.962;2023-08-20T15:27:34;1.73;;;1.60;;
42972;SDS011;28610;51.214;6.962;2023-08-20T15:30:20;0.80;;;0.80;;
42972;SDS011;28610;51.214;6.962;2023-08-20T15:33:08;1.90;;;1.55;;
42972;SDS011;28610;51.214;6.962;2023-08-20T15:35:54;1.50;;;1.40;;
42972;SDS011;28610;51.214;6.962;2023-08-20T15:38:41;1.33;;;1.23;;
42972;SDS011;28610;51.214;6.962;2023-08-20T15:41:27;1.17;;;1.17;;
42972;SDS011;28610;51.214;6.962;2023-08-20T15:44:12;2.58;;;1.50;;
42972;SDS011;28610;51.214;6.962;2023-08-20T15:46:58;1.30;;;1.30;;
42972;SDS011;28610;51.214;6.962;2023-08-20T15:49:43;2.10;;;1.45;;
42972;SDS011;28610;51.214;6.962;2023-08-20T15:52:29;0.85;;;0.85;;
42972;SDS011;28610;51.214;6.962;2023-08-20T15:55:16;1.33;;;1.27;;
42972;SDS011;28610;51.214;6.962;2023-08-20T15:58:02;0.85;;;0.85;;
42972;SDS011;28610;51.214;6.962;2023-08-20T16:00:47;1.17;;;1.17;;
42972;SDS011;28610;51.214;6.962;2023-08-20T16:03:33;0.88;;;0.88;;
42972;SDS011;28610;51.214;6.962;2023-08-20T16:06:19;1.55;;;1.45;;
42972;SDS011;28610;51.214;6.962;2023-08-20T16:09:05;1.02;;;1.02;;
42972;SDS011;28610;51.214;6.962;2023-08-20T16:11:53;1.50;;;1.40;;
42972;SDS011;28610;51.214;6.962;2023-08-20T16:14:39;1.10;;;1.05;;
42972;SDS011;28610;51.214;6.962;2023-08-20T16:17:24;0.82;;;0.82;;
42972;SDS011;28610;51.214;6.962;2023-08-20T16:20:10;1.20;;;1.10;;
42972;SDS011;28610;51.214;6.962;2023-08-20T16:22:56;1.05;;;1.05;;
42972;SDS011;28610;51.214;6.962;2023-08-20T16:25:42;2.83;;;1.73;;
42972;SDS011;28610;51.214;6.962;2023-08-20T16:28:28;1.05;;;1.05;;
42972;SDS011;28610;51.214;6.962;2023-08-20T16:31:14;1.10;;;1.08;;
42972;SDS011;28610;51.214;6.962;2023-08-20T16:34:00;1.20;;;1.13;;
42972;SDS011;28610;51.214;6.962;2023-08-20T16:36:45;0.70;;;0.70;;
42972;SDS011;28610;51.214;6.962;2023-08-20T16:39:31;1.67;;;1.58;;
42972;SDS011;28610;51.214;6.962;2023-08-20T16:42:16;4.18;;;1.13;;
42972;SDS011;28610;51.214;6.962;2023-08-20T16:45:04;9.07;;;1.70;;